CTN369 LWSK-LDZA
Flight info
| Callsign | CTN369 |
|---|---|
| Flight time | 1h 7m |
| Altitude | 36000 |
| Route | GOSTI DCT MAVAR DCT ALELU DCT MOJ DCT BOSNA DCT IRDIV DCT TEBLI |
| Aircraft | A319/M-SDE3FGHIRWY/LB1 |
Departure
| Time | 2026-04-26 14:08 |
|---|---|
| Airport | Skopje International Airport (LWSK) |
Arrival
| Time | 2026-04-26 15:16 |
|---|---|
| Airport | Zagreb Franjo Tuđman International Airport (LDZA) |
| Time | Latitude | Longitude | Altitude | Speed | Heading |
|---|---|---|---|---|---|
| 2026-04-26 13:36 | 41.96069 | 21.62595 | 793 ft | 0 kts | 76° |
| 2026-04-26 13:59 | 41.96066 | 21.62576 | 793 ft | 4 kts | 83° |
| 2026-04-26 14:00 | 41.96083 | 21.62520 | 793 ft | 1 kts | 166° |
| 2026-04-26 14:04 | 41.96083 | 21.62519 | 793 ft | 0 kts | 166° |
| 2026-04-26 14:04 | 41.96063 | 21.62526 | 793 ft | 10 kts | 166° |
| 2026-04-26 14:04 | 41.96000 | 21.62488 | 792 ft | 11 kts | 209° |
| 2026-04-26 14:05 | 41.95921 | 21.62498 | 791 ft | 12 kts | 166° |
| 2026-04-26 14:05 | 41.95837 | 21.62526 | 790 ft | 13 kts | 166° |
| 2026-04-26 14:05 | 41.95741 | 21.62561 | 787 ft | 15 kts | 165° |
| 2026-04-26 14:05 | 41.95635 | 21.62596 | 786 ft | 16 kts | 166° |
| 2026-04-26 14:06 | 41.95523 | 21.62637 | 785 ft | 17 kts | 164° |
| 2026-04-26 14:06 | 41.95404 | 21.62681 | 783 ft | 18 kts | 166° |
| 2026-04-26 14:06 | 41.95277 | 21.62723 | 780 ft | 20 kts | 166° |
| 2026-04-26 14:06 | 41.95148 | 21.62735 | 778 ft | 15 kts | 226° |
| 2026-04-26 14:07 | 41.95125 | 21.62610 | 779 ft | 14 kts | 256° |
| 2026-04-26 14:07 | 41.95126 | 21.62505 | 781 ft | 9 kts | 332° |
| 2026-04-26 14:07 | 41.95209 | 21.62476 | 781 ft | 27 kts | 346° |
| 2026-04-26 14:07 | 41.95637 | 21.62327 | 784 ft | 97 kts | 346° |
| 2026-04-26 14:08 | 41.96479 | 21.62040 | 807 ft | 147 kts | 346° |
| 2026-04-26 14:08 | 41.97468 | 21.61727 | 1363 ft | 145 kts | 345° |
| 2026-04-26 14:08 | 41.98454 | 21.61388 | 1920 ft | 146 kts | 346° |
| 2026-04-26 14:08 | 41.99444 | 21.61040 | 2458 ft | 149 kts | 346° |
| 2026-04-26 14:09 | 42.00509 | 21.60736 | 2827 ft | 170 kts | 357° |
| 2026-04-26 14:09 | 42.01649 | 21.61422 | 3093 ft | 201 kts | 45° |
| 2026-04-26 14:09 | 42.02148 | 21.63326 | 3459 ft | 239 kts | 89° |
| 2026-04-26 14:09 | 42.01550 | 21.65522 | 3978 ft | 265 kts | 128° |
| 2026-04-26 14:10 | 42.00012 | 21.66894 | 4798 ft | 276 kts | 164° |
| 2026-04-26 14:10 | 41.98089 | 21.66876 | 5727 ft | 278 kts | 197° |
| 2026-04-26 14:10 | 41.96330 | 21.65904 | 6725 ft | 278 kts | 207° |
| 2026-04-26 14:10 | 41.94614 | 21.64704 | 7630 ft | 279 kts | 219° |
| 2026-04-26 14:11 | 41.92851 | 21.60192 | 9239 ft | 283 kts | 262° |
| 2026-04-26 14:11 | 41.92353 | 21.57602 | 10105 ft | 288 kts | 257° |
| 2026-04-26 14:11 | 41.91741 | 21.54938 | 10515 ft | 310 kts | 255° |
| 2026-04-26 14:12 | 41.91047 | 21.52099 | 10941 ft | 328 kts | 254° |
| 2026-04-26 14:12 | 41.90326 | 21.49196 | 11649 ft | 334 kts | 254° |
| 2026-04-26 14:12 | 41.89590 | 21.46214 | 12447 ft | 338 kts | 254° |
| 2026-04-26 14:12 | 41.88859 | 21.43196 | 13262 ft | 341 kts | 254° |
| 2026-04-26 14:13 | 41.87393 | 21.37047 | 14736 ft | 349 kts | 255° |
| 2026-04-26 14:13 | 41.86657 | 21.33934 | 15451 ft | 351 kts | 255° |
| 2026-04-26 14:13 | 41.85916 | 21.30801 | 16175 ft | 353 kts | 254° |
| 2026-04-26 14:14 | 41.85171 | 21.27651 | 16890 ft | 355 kts | 255° |
| 2026-04-26 14:14 | 41.84429 | 21.24516 | 17569 ft | 359 kts | 255° |
| 2026-04-26 14:14 | 41.83666 | 21.21301 | 18276 ft | 362 kts | 254° |
| 2026-04-26 14:14 | 41.82895 | 21.18071 | 18891 ft | 364 kts | 254° |
| 2026-04-26 14:15 | 41.82121 | 21.14833 | 19531 ft | 365 kts | 255° |
| 2026-04-26 14:15 | 41.81344 | 21.11582 | 20084 ft | 367 kts | 255° |
| 2026-04-26 14:15 | 41.80570 | 21.08351 | 20716 ft | 369 kts | 255° |
| 2026-04-26 14:15 | 41.79777 | 21.05072 | 21356 ft | 370 kts | 255° |
| 2026-04-26 14:16 | 41.78978 | 21.01774 | 21978 ft | 372 kts | 255° |
| 2026-04-26 14:16 | 41.78175 | 20.98466 | 22609 ft | 374 kts | 255° |
| 2026-04-26 14:16 | 41.77364 | 20.95129 | 23220 ft | 377 kts | 255° |
| 2026-04-26 14:16 | 41.76547 | 20.91777 | 23787 ft | 379 kts | 255° |
| 2026-04-26 14:17 | 41.75735 | 20.88449 | 24238 ft | 382 kts | 255° |
| 2026-04-26 14:17 | 41.74901 | 20.85050 | 24682 ft | 385 kts | 255° |
| 2026-04-26 14:17 | 41.74059 | 20.81632 | 25111 ft | 388 kts | 255° |
| 2026-04-26 14:17 | 41.73210 | 20.78183 | 25547 ft | 390 kts | 255° |
| 2026-04-26 14:18 | 41.72357 | 20.74711 | 25979 ft | 393 kts | 255° |
| 2026-04-26 14:18 | 41.71499 | 20.71226 | 26404 ft | 395 kts | 254° |
| 2026-04-26 14:18 | 41.70634 | 20.67715 | 26804 ft | 398 kts | 254° |
| 2026-04-26 14:18 | 41.69763 | 20.64181 | 27209 ft | 401 kts | 255° |
| 2026-04-26 14:19 | 41.69145 | 20.60592 | 27579 ft | 401 kts | 267° |
| 2026-04-26 14:19 | 41.69232 | 20.56872 | 27977 ft | 400 kts | 281° |
| 2026-04-26 14:19 | 41.70035 | 20.53309 | 28394 ft | 402 kts | 295° |
| 2026-04-26 14:19 | 41.71522 | 20.50117 | 28775 ft | 406 kts | 309° |
| 2026-04-26 14:20 | 41.73605 | 20.47535 | 29152 ft | 411 kts | 324° |
| 2026-04-26 14:20 | 41.76041 | 20.45482 | 29498 ft | 415 kts | 326° |
| 2026-04-26 14:20 | 41.78482 | 20.43463 | 29866 ft | 418 kts | 327° |
| 2026-04-26 14:20 | 41.80967 | 20.41406 | 30233 ft | 420 kts | 327° |
| 2026-04-26 14:21 | 41.83469 | 20.39336 | 30538 ft | 422 kts | 327° |
| 2026-04-26 14:21 | 41.85986 | 20.37253 | 30839 ft | 424 kts | 327° |
| 2026-04-26 14:21 | 41.88509 | 20.35160 | 31140 ft | 426 kts | 326° |
| 2026-04-26 14:21 | 41.91010 | 20.33077 | 31436 ft | 428 kts | 326° |
| 2026-04-26 14:22 | 41.93545 | 20.30961 | 31731 ft | 430 kts | 326° |
| 2026-04-26 14:22 | 41.96090 | 20.28837 | 32141 ft | 429 kts | 326° |
| 2026-04-26 14:22 | 41.98627 | 20.26715 | 32560 ft | 428 kts | 326° |
| 2026-04-26 14:22 | 42.01159 | 20.24592 | 32991 ft | 427 kts | 326° |
| 2026-04-26 14:23 | 42.03641 | 20.22508 | 33420 ft | 426 kts | 326° |
| 2026-04-26 14:23 | 42.06156 | 20.20390 | 33872 ft | 425 kts | 326° |
| 2026-04-26 14:23 | 42.08661 | 20.18280 | 34280 ft | 424 kts | 326° |
| 2026-04-26 14:23 | 42.11162 | 20.16175 | 34657 ft | 423 kts | 326° |
| 2026-04-26 14:24 | 42.13665 | 20.14072 | 35031 ft | 422 kts | 326° |
| 2026-04-26 14:24 | 42.16126 | 20.12001 | 35370 ft | 421 kts | 326° |
| 2026-04-26 14:24 | 42.18620 | 20.09902 | 35675 ft | 421 kts | 326° |
| 2026-04-26 14:24 | 42.21110 | 20.07804 | 35979 ft | 422 kts | 326° |
| 2026-04-26 14:25 | 42.23595 | 20.05710 | 36053 ft | 419 kts | 326° |
| 2026-04-26 14:25 | 42.28512 | 20.01563 | 36068 ft | 415 kts | 326° |
| 2026-04-26 14:26 | 42.33380 | 19.97434 | 36072 ft | 414 kts | 325° |
| 2026-04-26 14:26 | 42.38243 | 19.93291 | 36070 ft | 414 kts | 325° |
| 2026-04-26 14:27 | 42.43136 | 19.89124 | 36064 ft | 414 kts | 325° |
| 2026-04-26 14:27 | 42.48029 | 19.85051 | 36081 ft | 415 kts | 330° |
| 2026-04-26 14:28 | 42.53340 | 19.81875 | 36072 ft | 416 kts | 334° |
| 2026-04-26 14:28 | 42.58671 | 19.78755 | 36062 ft | 417 kts | 334° |
| 2026-04-26 14:29 | 42.63978 | 19.75629 | 36066 ft | 418 kts | 334° |
| 2026-04-26 14:29 | 42.69317 | 19.72474 | 36066 ft | 418 kts | 334° |
| 2026-04-26 14:30 | 42.74635 | 19.69340 | 36066 ft | 418 kts | 334° |
| 2026-04-26 14:30 | 42.79980 | 19.66179 | 36064 ft | 418 kts | 334° |
| 2026-04-26 14:31 | 42.85301 | 19.63018 | 36070 ft | 419 kts | 334° |
| 2026-04-26 14:31 | 42.90654 | 19.59835 | 36073 ft | 419 kts | 334° |
| 2026-04-26 14:32 | 42.95707 | 19.55974 | 36086 ft | 415 kts | 320° |
| 2026-04-26 14:32 | 43.00024 | 19.50718 | 36081 ft | 415 kts | 316° |
| 2026-04-26 14:33 | 43.04282 | 19.45451 | 36078 ft | 415 kts | 316° |
| 2026-04-26 14:33 | 43.08572 | 19.40130 | 36076 ft | 416 kts | 316° |
| 2026-04-26 14:34 | 43.12830 | 19.34831 | 36080 ft | 416 kts | 316° |
| 2026-04-26 14:34 | 43.17121 | 19.29498 | 36081 ft | 416 kts | 316° |
| 2026-04-26 14:35 | 43.21425 | 19.24144 | 36081 ft | 416 kts | 316° |
| 2026-04-26 14:35 | 43.25691 | 19.18826 | 36083 ft | 416 kts | 316° |
| 2026-04-26 14:36 | 43.29994 | 19.13454 | 36088 ft | 417 kts | 316° |
| 2026-04-26 14:36 | 43.34254 | 19.08119 | 36085 ft | 417 kts | 316° |
| 2026-04-26 14:37 | 43.38547 | 19.02736 | 36088 ft | 417 kts | 316° |
| 2026-04-26 14:37 | 43.42835 | 18.97335 | 36087 ft | 417 kts | 316° |
| 2026-04-26 14:38 | 43.47117 | 18.91926 | 36087 ft | 417 kts | 316° |
| 2026-04-26 14:38 | 43.51366 | 18.86559 | 36087 ft | 417 kts | 316° |
| 2026-04-26 14:39 | 43.55653 | 18.81143 | 36084 ft | 417 kts | 316° |
| 2026-04-26 14:39 | 43.59923 | 18.75718 | 36084 ft | 417 kts | 316° |
| 2026-04-26 14:40 | 43.64197 | 18.70295 | 36085 ft | 417 kts | 316° |
| 2026-04-26 14:40 | 43.68448 | 18.64892 | 36077 ft | 417 kts | 316° |
| 2026-04-26 14:41 | 43.72706 | 18.59450 | 36073 ft | 417 kts | 316° |
| 2026-04-26 14:41 | 43.76980 | 18.53997 | 36069 ft | 417 kts | 316° |
| 2026-04-26 14:42 | 43.81219 | 18.48570 | 36072 ft | 417 kts | 316° |
| 2026-04-26 14:42 | 43.84762 | 18.44025 | 36077 ft | 417 kts | 316° |
| 2026-04-26 14:43 | 43.89025 | 18.38541 | 36081 ft | 417 kts | 316° |
| 2026-04-26 14:43 | 43.93278 | 18.33050 | 36074 ft | 418 kts | 316° |
| 2026-04-26 14:44 | 43.97534 | 18.27541 | 36073 ft | 418 kts | 316° |
| 2026-04-26 14:44 | 44.01792 | 18.22030 | 36077 ft | 418 kts | 316° |
| 2026-04-26 14:45 | 44.06022 | 18.16543 | 36084 ft | 419 kts | 316° |
| 2026-04-26 14:45 | 44.10291 | 18.11001 | 36090 ft | 419 kts | 316° |
| 2026-04-26 14:46 | 44.14563 | 18.05454 | 36096 ft | 419 kts | 316° |
| 2026-04-26 14:46 | 44.18821 | 17.99906 | 36105 ft | 419 kts | 316° |
| 2026-04-26 14:47 | 44.23048 | 17.94387 | 36107 ft | 419 kts | 316° |
| 2026-04-26 14:47 | 44.27299 | 17.88818 | 36108 ft | 418 kts | 316° |
| 2026-04-26 14:48 | 44.31550 | 17.83241 | 36110 ft | 418 kts | 316° |
| 2026-04-26 14:48 | 44.35768 | 17.77690 | 35859 ft | 419 kts | 316° |
| 2026-04-26 14:48 | 44.37769 | 17.74739 | 35475 ft | 415 kts | 308° |
| 2026-04-26 14:49 | 44.39539 | 17.71556 | 34938 ft | 412 kts | 307° |
| 2026-04-26 14:49 | 44.41277 | 17.68417 | 34395 ft | 411 kts | 307° |
| 2026-04-26 14:49 | 44.43024 | 17.65265 | 33842 ft | 409 kts | 307° |
| 2026-04-26 14:49 | 44.44764 | 17.62130 | 33313 ft | 405 kts | 308° |
| 2026-04-26 14:50 | 44.46491 | 17.59022 | 32792 ft | 402 kts | 308° |
| 2026-04-26 14:50 | 44.48205 | 17.55932 | 32267 ft | 399 kts | 307° |
| 2026-04-26 14:50 | 44.49905 | 17.52860 | 31759 ft | 397 kts | 307° |
| 2026-04-26 14:50 | 44.51590 | 17.49809 | 31263 ft | 394 kts | 307° |
| 2026-04-26 14:51 | 44.53242 | 17.46814 | 30761 ft | 391 kts | 307° |
| 2026-04-26 14:51 | 44.54902 | 17.43800 | 30265 ft | 389 kts | 307° |
| 2026-04-26 14:51 | 44.56555 | 17.40800 | 29724 ft | 386 kts | 307° |
| 2026-04-26 14:51 | 44.58190 | 17.37830 | 29247 ft | 382 kts | 308° |
| 2026-04-26 14:52 | 44.59810 | 17.34886 | 28781 ft | 378 kts | 308° |
| 2026-04-26 14:52 | 44.61410 | 17.31974 | 28318 ft | 375 kts | 308° |
| 2026-04-26 14:52 | 44.62979 | 17.29115 | 27876 ft | 372 kts | 308° |
| 2026-04-26 14:52 | 44.64554 | 17.26241 | 27432 ft | 370 kts | 308° |
| 2026-04-26 14:53 | 44.66117 | 17.23388 | 26997 ft | 367 kts | 308° |
| 2026-04-26 14:53 | 44.67675 | 17.20544 | 26574 ft | 365 kts | 308° |
| 2026-04-26 14:53 | 44.69217 | 17.17727 | 26146 ft | 362 kts | 308° |
| 2026-04-26 14:53 | 44.70752 | 17.14924 | 25718 ft | 360 kts | 308° |
| 2026-04-26 14:54 | 44.72274 | 17.12135 | 25294 ft | 357 kts | 308° |
| 2026-04-26 14:54 | 44.73761 | 17.09404 | 24865 ft | 355 kts | 308° |
| 2026-04-26 14:54 | 44.75261 | 17.06649 | 24431 ft | 354 kts | 308° |
| 2026-04-26 14:54 | 44.76754 | 17.03904 | 23988 ft | 352 kts | 308° |
| 2026-04-26 14:55 | 44.78242 | 17.01167 | 23516 ft | 351 kts | 308° |
| 2026-04-26 14:55 | 44.79717 | 16.98446 | 23034 ft | 348 kts | 309° |
| 2026-04-26 14:55 | 44.81181 | 16.95742 | 22585 ft | 345 kts | 308° |
| 2026-04-26 14:55 | 44.82639 | 16.93044 | 22137 ft | 343 kts | 308° |
| 2026-04-26 14:56 | 44.84063 | 16.90409 | 21705 ft | 341 kts | 308° |
| 2026-04-26 14:56 | 44.85503 | 16.87745 | 21267 ft | 339 kts | 308° |
| 2026-04-26 14:56 | 44.86935 | 16.85099 | 20829 ft | 338 kts | 308° |
| 2026-04-26 14:56 | 44.88359 | 16.82466 | 20391 ft | 337 kts | 308° |
| 2026-04-26 14:57 | 44.89777 | 16.79836 | 19951 ft | 336 kts | 308° |
| 2026-04-26 14:57 | 44.91171 | 16.77245 | 19530 ft | 335 kts | 309° |
| 2026-04-26 14:57 | 44.92586 | 16.74619 | 19102 ft | 335 kts | 309° |
| 2026-04-26 14:57 | 44.93995 | 16.72001 | 18679 ft | 334 kts | 309° |
| 2026-04-26 14:58 | 44.95404 | 16.69379 | 18233 ft | 334 kts | 309° |
| 2026-04-26 14:58 | 44.96806 | 16.66768 | 17791 ft | 332 kts | 309° |
| 2026-04-26 14:58 | 44.98180 | 16.64202 | 17386 ft | 329 kts | 309° |
| 2026-04-26 14:58 | 44.99561 | 16.61622 | 16963 ft | 327 kts | 308° |
| 2026-04-26 14:59 | 45.00935 | 16.59060 | 16543 ft | 326 kts | 308° |
| 2026-04-26 14:59 | 45.02304 | 16.56507 | 16147 ft | 324 kts | 308° |
| 2026-04-26 14:59 | 45.03666 | 16.53964 | 15745 ft | 323 kts | 308° |
| 2026-04-26 14:59 | 45.04568 | 16.52277 | 15481 ft | 322 kts | 308° |
| 2026-04-26 15:00 | 45.06352 | 16.48930 | 14951 ft | 321 kts | 308° |
| 2026-04-26 15:00 | 45.07694 | 16.46414 | 14553 ft | 319 kts | 308° |
| 2026-04-26 15:00 | 45.09032 | 16.43904 | 14151 ft | 318 kts | 308° |
| 2026-04-26 15:00 | 45.10365 | 16.41398 | 13722 ft | 318 kts | 307° |
| 2026-04-26 15:01 | 45.11695 | 16.38896 | 13304 ft | 316 kts | 307° |
| 2026-04-26 15:01 | 45.12992 | 16.36453 | 12909 ft | 313 kts | 307° |
| 2026-04-26 15:01 | 45.14303 | 16.33988 | 12495 ft | 310 kts | 307° |
| 2026-04-26 15:01 | 45.15601 | 16.31542 | 12091 ft | 309 kts | 307° |
| 2026-04-26 15:02 | 45.16890 | 16.29108 | 11680 ft | 307 kts | 307° |
| 2026-04-26 15:02 | 45.18167 | 16.26691 | 11274 ft | 305 kts | 307° |
| 2026-04-26 15:02 | 45.19427 | 16.24307 | 10861 ft | 304 kts | 307° |
| 2026-04-26 15:02 | 45.20693 | 16.21915 | 10451 ft | 303 kts | 307° |
| 2026-04-26 15:03 | 45.21955 | 16.19530 | 10160 ft | 297 kts | 308° |
| 2026-04-26 15:03 | 45.23352 | 16.17448 | 10039 ft | 286 kts | 317° |
| 2026-04-26 15:03 | 45.24795 | 16.15538 | 9685 ft | 283 kts | 317° |
| 2026-04-26 15:03 | 45.26225 | 16.13641 | 9335 ft | 280 kts | 317° |
| 2026-04-26 15:04 | 45.27656 | 16.11742 | 8873 ft | 281 kts | 317° |
| 2026-04-26 15:04 | 45.29055 | 16.09876 | 8508 ft | 279 kts | 316° |
| 2026-04-26 15:04 | 45.30469 | 16.07994 | 8162 ft | 275 kts | 316° |
| 2026-04-26 15:04 | 45.31857 | 16.06147 | 7827 ft | 272 kts | 316° |
| 2026-04-26 15:05 | 45.33225 | 16.04324 | 7526 ft | 268 kts | 316° |
| 2026-04-26 15:05 | 45.34147 | 16.03095 | 7352 ft | 269 kts | 316° |
| 2026-04-26 15:05 | 45.35962 | 16.00676 | 7034 ft | 267 kts | 316° |
| 2026-04-26 15:05 | 45.37295 | 15.98895 | 6801 ft | 264 kts | 315° |
| 2026-04-26 15:06 | 45.38635 | 15.97106 | 6571 ft | 263 kts | 315° |
| 2026-04-26 15:06 | 45.39970 | 15.95325 | 6327 ft | 264 kts | 316° |
| 2026-04-26 15:06 | 45.41303 | 15.93542 | 6141 ft | 258 kts | 316° |
| 2026-04-26 15:06 | 45.42573 | 15.91843 | 5962 ft | 249 kts | 316° |
| 2026-04-26 15:07 | 45.45019 | 15.88562 | 5605 ft | 233 kts | 316° |
| 2026-04-26 15:07 | 45.46177 | 15.87004 | 5432 ft | 226 kts | 316° |
| 2026-04-26 15:07 | 45.47302 | 15.85491 | 5253 ft | 219 kts | 316° |
| 2026-04-26 15:08 | 45.48393 | 15.84027 | 5078 ft | 211 kts | 316° |
| 2026-04-26 15:08 | 45.49435 | 15.82629 | 4910 ft | 205 kts | 316° |
| 2026-04-26 15:08 | 45.50458 | 15.81257 | 4753 ft | 199 kts | 316° |
| 2026-04-26 15:08 | 45.51468 | 15.79914 | 4590 ft | 198 kts | 320° |
| 2026-04-26 15:09 | 45.52651 | 15.78944 | 4445 ft | 197 kts | 342° |
| 2026-04-26 15:09 | 45.53993 | 15.78620 | 4297 ft | 194 kts | 4° |
| 2026-04-26 15:09 | 45.55310 | 15.78973 | 4186 ft | 192 kts | 23° |
| 2026-04-26 15:09 | 45.56442 | 15.79926 | 4018 ft | 188 kts | 43° |
| 2026-04-26 15:10 | 45.57337 | 15.81240 | 3871 ft | 186 kts | 49° |
| 2026-04-26 15:10 | 45.57938 | 15.82140 | 3776 ft | 184 kts | 49° |
| 2026-04-26 15:10 | 45.59102 | 15.83888 | 3574 ft | 182 kts | 49° |
| 2026-04-26 15:10 | 45.59976 | 15.85205 | 3429 ft | 183 kts | 48° |
| 2026-04-26 15:11 | 45.60852 | 15.86526 | 3277 ft | 181 kts | 49° |
| 2026-04-26 15:11 | 45.61708 | 15.87816 | 3136 ft | 180 kts | 49° |
| 2026-04-26 15:11 | 45.62570 | 15.89119 | 3070 ft | 179 kts | 49° |
| 2026-04-26 15:11 | 45.63399 | 15.90368 | 2995 ft | 166 kts | 49° |
| 2026-04-26 15:12 | 45.64186 | 15.91557 | 2855 ft | 163 kts | 49° |
| 2026-04-26 15:12 | 45.64956 | 15.92723 | 2670 ft | 159 kts | 49° |
| 2026-04-26 15:12 | 45.65716 | 15.93873 | 2473 ft | 161 kts | 49° |
| 2026-04-26 15:12 | 45.66470 | 15.95012 | 2285 ft | 156 kts | 48° |
| 2026-04-26 15:13 | 45.67188 | 15.96098 | 2066 ft | 143 kts | 49° |
| 2026-04-26 15:13 | 45.67842 | 15.97086 | 1880 ft | 133 kts | 50° |
| 2026-04-26 15:13 | 45.68462 | 15.98026 | 1720 ft | 127 kts | 51° |
| 2026-04-26 15:13 | 45.69071 | 15.98949 | 1548 ft | 129 kts | 50° |
| 2026-04-26 15:14 | 45.69687 | 15.99883 | 1386 ft | 128 kts | 50° |
| 2026-04-26 15:14 | 45.70295 | 16.00805 | 1214 ft | 127 kts | 51° |
| 2026-04-26 15:14 | 45.70890 | 16.01707 | 1070 ft | 126 kts | 48° |
| 2026-04-26 15:14 | 45.71498 | 16.02623 | 871 ft | 127 kts | 50° |
| 2026-04-26 15:15 | 45.72103 | 16.03534 | 661 ft | 126 kts | 51° |
| 2026-04-26 15:15 | 45.72697 | 16.04457 | 524 ft | 127 kts | 49° |
| 2026-04-26 15:15 | 45.73303 | 16.05377 | 393 ft | 127 kts | 49° |
| 2026-04-26 15:15 | 45.73848 | 16.06204 | 361 ft | 95 kts | 47° |
| 2026-04-26 15:16 | 45.74184 | 16.06716 | 360 ft | 46 kts | 46° |
| 2026-04-26 15:16 | 45.74382 | 16.07015 | 358 ft | 38 kts | 47° |
| 2026-04-26 15:16 | 45.74556 | 16.07280 | 358 ft | 35 kts | 46° |
| 2026-04-26 15:16 | 45.74674 | 16.07513 | 358 ft | 21 kts | 112° |
| 2026-04-26 15:17 | 45.74573 | 16.07651 | 359 ft | 20 kts | 135° |
| 2026-04-26 15:17 | 45.74508 | 16.07740 | 359 ft | 20 kts | 136° |
| 2026-04-26 15:17 | 45.74363 | 16.07903 | 361 ft | 20 kts | 184° |
| 2026-04-26 15:17 | 45.74263 | 16.07776 | 359 ft | 20 kts | 226° |
| 2026-04-26 15:18 | 45.74226 | 16.07759 | 359 ft | 4 kts | 110° |
| 2026-04-26 15:18 | 45.74204 | 16.07803 | 365 ft | 7 kts | 139° |
| 2026-04-26 15:18 | 45.74179 | 16.07837 | 359 ft | 0 kts | 136° |